Time;durP1;ratioP1;P1;durP2;ratioP2;P2;SDS_P1;SDS_P2;PMS_P1;PMS_P2;Temp;Humidity;BMP_temperature;BMP_pressure;BME280_temperature;BME280_humidity;BME280_pressure;Samples;Min_cycle;Max_cycle;Signal;HPM_P1;HPM_P2
2021/03/03 00:00:41;;;;;;;50.88;25.43;;;;;;;1.33;85.46;100410.97;1771860;81;21829;-79
2021/03/03 00:03:47;;;;;;;49.20;25.75;;;;;;;1.34;85.45;100416.72;1771823;81;21689;-79
2021/03/03 00:06:54;;;;;;;47.05;24.05;;;;;;;1.31;85.46;100405.67;1771801;81;21293;-79
2021/03/03 00:09:59;;;;;;;51.28;24.25;;;;;;;1.30;85.45;100409.34;1771832;81;21256;-78
2021/03/03 00:13:04;;;;;;;48.02;23.83;;;;;;;1.25;85.40;100414.22;1771766;81;21307;-78
2021/03/03 00:16:10;;;;;;;41.73;22.75;;;;;;;1.22;85.45;100406.36;1771883;81;21307;-79
2021/03/03 00:19:17;;;;;;;45.15;23.80;;;;;;;1.20;85.54;100406.97;1771895;81;21853;-79
2021/03/03 00:22:22;;;;;;;49.58;24.00;;;;;;;1.18;85.62;100413.83;1771838;81;21300;-79
2021/03/03 00:25:27;;;;;;;43.13;22.48;;;;;;;1.18;85.70;100419.22;1771811;81;21154;-79
2021/03/03 00:28:32;;;;;;;50.15;23.83;;;;;;;1.19;85.79;100410.16;1771089;81;21201;-79
2021/03/03 00:31:37;;;;;;;49.38;23.00;;;;;;;1.22;85.76;100410.40;1771811;81;21737;-79
2021/03/03 00:34:43;;;;;;;45.50;23.32;;;;;;;1.23;85.74;100426.47;1771844;81;21786;-79
2021/03/03 00:37:48;;;;;;;44.85;23.35;;;;;;;1.25;85.65;100416.92;1771742;81;21719;-79
2021/03/03 00:40:54;;;;;;;38.50;19.85;;;;;;;1.30;85.49;100421.97;1771949;81;21287;-78
2021/03/03 00:43:59;;;;;;;44.80;21.60;;;;;;;1.31;85.34;100415.10;1771634;81;21300;-78
2021/03/03 00:47:04;;;;;;;41.63;21.65;;;;;;;1.34;85.17;100430.20;1771831;81;21300;-78
2021/03/03 00:50:11;;;;;;;44.00;21.73;;;;;;;1.37;85.08;100422.75;1782923;80;21295;-79
2021/03/03 00:53:21;;;;;;;38.98;21.52;;;;;;;1.39;84.96;100419.93;1785621;80;21278;-79
2021/03/03 00:56:26;;;;;;;39.75;21.23;;;;;;;1.39;84.84;100428.02;1785554;80;21156;-79
2021/03/03 00:59:34;;;;;;;36.38;19.95;;;;;;;1.40;84.77;100418.95;1785518;80;22264;-79
2021/03/03 01:02:39;;;;;;;42.90;20.60;;;;;;;1.41;84.61;100433.68;1768998;80;21295;-79
2021/03/03 01:05:49;;;;;;;38.73;20.02;;;;;;;1.42;84.54;100434.05;1785578;80;21710;-79
2021/03/03 01:08:55;;;;;;;38.95;19.92;;;;;;;1.44;84.49;100436.13;1785820;80;21149;-79
2021/03/03 01:12:02;;;;;;;42.03;20.15;;;;;;;1.45;84.39;100438.33;1785637;80;21561;-78
2021/03/03 01:15:08;;;;;;;38.65;19.32;;;;;;;1.44;84.41;100432.08;1785606;80;21284;-78
2021/03/03 01:18:15;;;;;;;34.80;19.23;;;;;;;1.46;84.42;100440.08;1785506;80;21186;-78
2021/03/03 01:21:21;;;;;;;40.40;20.02;;;;;;;1.46;84.38;100440.94;1785655;80;21264;-79
2021/03/03 01:24:26;;;;;;;35.00;18.17;;;;;;;1.47;84.36;100441.79;1785618;80;21133;-79
2021/03/03 01:27:32;;;;;;;37.95;19.00;;;;;;;1.47;84.35;100433.21;1785723;80;21794;-78
2021/03/03 01:30:38;;;;;;;34.30;18.48;;;;;;;1.48;84.27;100438.97;1785613;80;21287;-79
2021/03/03 01:33:43;;;;;;;40.52;18.87;;;;;;;1.48;84.22;100451.59;1785657;80;21260;-79
2021/03/03 01:36:49;;;;;;;36.60;18.55;;;;;;;1.49;84.19;100458.70;1785624;80;21184;-78
2021/03/03 01:39:54;;;;;;;34.60;17.82;;;;;;;1.47;84.18;100460.17;1785637;80;21287;-79
2021/03/03 01:43:03;;;;;;;29.55;17.32;;;;;;;1.46;84.21;100465.69;1785630;80;21240;-78
2021/03/03 01:46:08;;;;;;;38.17;16.70;;;;;;;1.46;84.25;100465.69;1785658;80;21184;-79
2021/03/03 01:49:13;;;;;;;33.42;17.82;;;;;;;1.47;84.26;100464.70;1785018;80;21256;-79
2021/03/03 01:52:18;;;;;;;31.85;18.12;;;;;;;1.45;84.25;100469.33;1785617;80;21738;-78
2021/03/03 01:55:25;;;;;;;33.60;16.55;;;;;;;1.44;84.27;100468.97;1785767;80;21268;-78
2021/03/03 01:58:29;;;;;;;32.60;16.95;;;;;;;1.42;84.29;100474.97;1785596;80;21295;-79
2021/03/03 02:01:36;;;;;;;35.95;16.73;;;;;;;1.41;84.39;100473.22;1785628;80;21228;-79
2021/03/03 02:04:42;;;;;;;29.98;16.97;;;;;;;1.40;84.38;100479.11;1785537;80;21153;-78
2021/03/03 02:08:20;;;;;;;34.60;17.37;;;;;;;1.40;84.41;100484.49;1785627;80;21837;-79
2021/03/03 02:11:37;;;;;;;31.27;17.12;;;;;;;1.41;84.41;100488.05;1785615;80;21692;-78
2021/03/03 02:14:44;;;;;;;35.33;17.02;;;;;;;1.39;84.43;100500.79;1784327;80;21157;-79
2021/03/03 02:17:49;;;;;;;32.60;16.65;;;;;;;1.37;84.46;100496.02;1785505;80;21196;-76
2021/03/03 02:21:23;;;;;;;33.02;16.27;;;;;;;1.36;84.51;100508.60;1785649;80;21340;-76
2021/03/03 02:24:32;;;;;;;33.78;16.07;;;;;;;1.35;84.49;100513.62;1785668;80;21279;-76
2021/03/03 02:27:38;;;;;;;31.75;15.15;;;;;;;1.32;84.47;100520.61;1785615;80;21319;-76
2021/03/03 02:30:46;;;;;;;33.70;17.05;;;;;;;1.30;84.54;100527.92;1785629;80;21300;-76
2021/03/03 02:33:51;;;;;;;29.35;15.55;;;;;;;1.27;84.55;100526.33;1785586;80;21691;-76
2021/03/03 02:36:58;;;;;;;29.98;16.37;;;;;;;1.24;84.54;100534.63;1785675;80;21326;-76
2021/03/03 02:40:03;;;;;;;29.18;14.33;;;;;;;1.22;84.51;100535.70;1785574;80;21833;-76
2021/03/03 02:43:08;;;;;;;24.30;13.80;;;;;;;1.19;84.47;100533.25;1785519;80;21184;-76
2021/03/03 02:46:14;;;;;;;25.02;13.68;;;;;;;1.13;84.48;100538.59;1785565;80;21750;-76
2021/03/03 02:49:22;;;;;;;26.62;13.62;;;;;;;1.09;84.59;100544.31;1785661;80;21192;-76
2021/03/03 02:52:27;;;;;;;25.45;14.60;;;;;;;1.03;84.70;100550.98;1775796;80;21196;-76
2021/03/03 02:55:33;;;;;;;28.35;14.00;;;;;;;0.99;84.75;100550.36;1785506;80;21769;-76
2021/03/03 02:58:38;;;;;;;31.50;14.70;;;;;;;0.95;84.89;100556.08;1785585;80;21141;-76
2021/03/03 03:01:45;;;;;;;27.98;13.75;;;;;;;0.92;85.06;100563.02;1785401;80;21754;-76
2021/03/03 03:05:07;;;;;;;26.52;14.47;;;;;;;0.89;85.18;100567.26;1785807;80;21100;-76
2021/03/03 03:08:29;;;;;;;30.88;13.55;;;;;;;0.87;85.24;100567.38;1769196;80;21175;-76
2021/03/03 03:11:54;;;;;;;21.27;12.70;;;;;;;0.85;85.34;100572.48;1785695;80;21176;-76
2021/03/03 03:15:16;;;;;;;24.60;12.58;;;;;;;0.84;85.43;100576.15;1785714;80;21093;-79
2021/03/03 03:18:28;;;;;;;27.13;12.95;;;;;;;0.84;85.51;100586.43;1785479;80;21223;-79
2021/03/03 03:21:37;;;;;;;26.90;12.88;;;;;;;0.85;85.54;100584.59;1785573;80;21625;-79
2021/03/03 03:24:43;;;;;;;24.20;12.75;;;;;;;0.85;85.47;100588.64;1785776;80;21161;-79
2021/03/03 03:27:49;;;;;;;20.35;12.23;;;;;;;0.83;85.42;100591.94;1785258;80;21180;-79
2021/03/03 03:30:55;;;;;;;22.75;11.53;;;;;;;0.80;85.37;100593.03;1785282;80;21813;-79
2021/03/03 03:34:00;;;;;;;23.30;12.28;;;;;;;0.76;85.34;100600.45;1785644;80;21146;-79
2021/03/03 03:37:06;;;;;;;23.70;12.10;;;;;;;0.73;85.39;100604.70;1785578;80;21291;-79
2021/03/03 03:40:10;;;;;;;22.80;11.97;;;;;;;0.72;85.42;100612.41;1785603;80;21512;-79
2021/03/03 03:43:19;;;;;;;22.20;11.40;;;;;;;0.75;85.44;100614.89;1785475;80;21710;-79
2021/03/03 03:46:24;;;;;;;21.27;10.85;;;;;;;0.80;85.38;100613.69;1785529;80;21292;-79
2021/03/03 03:49:29;;;;;;;20.45;11.48;;;;;;;0.84;85.21;100616.05;1785608;80;21196;-79
2021/03/03 03:52:35;;;;;;;22.87;11.08;;;;;;;0.88;84.95;100625.66;1785234;80;21295;-78
2021/03/03 03:55:44;;;;;;;23.90;11.28;;;;;;;0.91;84.77;100617.86;1785767;80;21336;-78
2021/03/03 03:58:52;;;;;;;20.25;10.43;;;;;;;0.93;84.50;100621.30;1785629;80;21176;-78
2021/03/03 04:01:58;;;;;;;20.55;10.20;;;;;;;0.93;84.21;100620.80;1785387;80;21828;-79
2021/03/03 04:05:03;;;;;;;22.67;10.63;;;;;;;0.92;83.99;100629.86;1785644;80;21161;-79
2021/03/03 04:08:09;;;;;;;20.48;10.72;;;;;;;0.88;83.81;100625.66;1785535;80;21154;-78
2021/03/03 04:11:14;;;;;;;17.52;9.75;;;;;;;0.87;83.71;100640.09;1785550;80;21706;-78
2021/03/03 04:14:20;;;;;;;18.57;9.85;;;;;;;0.87;83.58;100629.81;1785583;80;21687;-78
2021/03/03 04:17:25;;;;;;;24.05;10.28;;;;;;;0.87;83.54;100638.75;1786268;79;21675;-79
2021/03/03 04:20:31;;;;;;;16.82;9.58;;;;;;;0.87;83.53;100645.97;1785572;80;21291;-79
2021/03/03 04:23:36;;;;;;;19.05;9.23;;;;;;;0.86;83.40;100641.07;1785567;80;21168;-79
2021/03/03 04:26:42;;;;;;;19.90;9.83;;;;;;;0.88;83.37;100649.89;1785597;79;21879;-78
2021/03/03 04:29:48;;;;;;;17.95;8.20;;;;;;;0.89;83.26;100653.45;1799251;80;21260;-78
2021/03/03 04:32:53;;;;;;;19.90;9.58;;;;;;;0.88;83.06;100659.31;1799181;80;21790;-78
2021/03/03 04:35:58;;;;;;;17.02;8.35;;;;;;;0.89;82.95;100664.22;1799281;80;21267;-79
2021/03/03 04:39:03;;;;;;;17.48;8.35;;;;;;;0.89;82.77;100665.08;1799248;80;21138;-78
2021/03/03 04:42:10;;;;;;;17.07;8.60;;;;;;;0.89;82.64;100672.30;1792793;79;21687;-79
2021/03/03 04:45:18;;;;;;;15.43;7.90;;;;;;;0.89;82.56;100673.16;1764345;80;21144;-78
2021/03/03 04:48:24;;;;;;;16.30;7.60;;;;;;;0.89;82.54;100674.99;1785423;80;21334;-79
2021/03/03 04:51:29;;;;;;;15.50;7.85;;;;;;;0.83;82.53;100678.12;1786198;79;21786;-78
2021/03/03 04:54:37;;;;;;;13.40;7.35;;;;;;;0.78;82.56;100695.08;1783097;80;21275;-78
2021/03/03 04:57:43;;;;;;;18.15;7.10;;;;;;;0.74;82.65;100696.62;1772134;79;21295;-78
2021/03/03 05:00:48;;;;;;;13.53;7.03;;;;;;;0.70;82.92;100695.09;1771760;79;21297;-78
2021/03/03 05:03:55;;;;;;;14.30;7.35;;;;;;;0.70;83.14;100693.75;1734801;82;22239;-78
2021/03/03 05:07:00;;;;;;;13.00;7.17;;;;;;;0.71;83.37;100704.92;1771830;79;21201;-78
2021/03/03 05:10:05;;;;;;;16.82;6.95;;;;;;;0.74;83.48;100695.76;1775545;79;21790;-78
2021/03/03 05:13:11;;;;;;;14.75;6.60;;;;;;;0.81;83.54;100714.59;1796696;79;21763;-78
2021/03/03 05:16:17;;;;;;;15.08;7.03;;;;;;;0.90;83.48;100713.10;1788175;79;21235;-78
2021/03/03 05:19:23;;;;;;;14.93;7.28;;;;;;;0.96;83.49;100716.72;1773181;79;21743;-78
2021/03/03 05:22:28;;;;;;;17.40;7.78;;;;;;;1.01;83.47;100730.73;1779221;79;21814;-78
2021/03/03 05:25:34;;;;;;;11.05;7.00;;;;;;;1.05;83.62;100727.34;1785281;79;21302;-78
2021/03/03 05:28:41;;;;;;;14.13;7.12;;;;;;;1.10;83.90;100734.63;1777896;79;21274;-78
2021/03/03 05:31:48;;;;;;;13.88;6.92;;;;;;;1.15;84.20;100744.11;1782385;79;21193;-78
2021/03/03 05:34:54;;;;;;;16.67;8.25;;;;;;;1.22;84.37;100744.54;1781931;79;21332;-78
2021/03/03 05:38:00;;;;;;;16.52;7.47;;;;;;;1.27;84.34;100762.14;1782774;79;21157;-78
2021/03/03 05:41:05;;;;;;;16.07;8.30;;;;;;;1.34;84.25;100760.36;1785791;79;21857;-78
2021/03/03 05:44:13;;;;;;;16.75;9.93;;;;;;;1.38;84.27;100765.92;1785861;79;21742;-78
2021/03/03 05:47:18;;;;;;;17.02;10.50;;;;;;;1.39;84.28;100777.94;1753719;79;21826;-78
2021/03/03 05:50:24;;;;;;;18.98;10.55;;;;;;;1.37;84.43;100768.25;1780199;79;21284;-78
2021/03/03 05:53:29;;;;;;;21.07;10.63;;;;;;;1.41;84.79;100769.73;1778160;79;21829;-78
2021/03/03 05:56:34;;;;;;;21.62;10.95;;;;;;;1.48;85.07;100791.27;1778287;79;21208;-78
2021/03/03 05:59:39;;;;;;;19.37;10.58;;;;;;;1.47;84.89;100786.36;1789211;79;21308;-78
2021/03/03 06:02:46;;;;;;;16.17;9.93;;;;;;;1.46;84.99;100792.73;1783773;79;21286;-78
2021/03/03 06:05:55;;;;;;;18.42;10.35;;;;;;;1.48;85.31;100793.48;1785768;79;21329;-77
2021/03/03 06:09:02;;;;;;;15.75;9.33;;;;;;;1.51;85.39;100794.62;1789309;79;21330;-77
2021/03/03 06:12:08;;;;;;;19.67;10.23;;;;;;;1.53;85.38;100791.81;1787023;79;21789;-78
2021/03/03 06:15:15;;;;;;;17.80;10.45;;;;;;;1.59;85.47;100794.06;1787027;79;21306;-77
2021/03/03 06:18:21;;;;;;;18.42;10.38;;;;;;;1.64;85.46;100791.91;1784882;79;21342;-77
2021/03/03 06:21:34;;;;;;;16.40;9.60;;;;;;;1.71;85.28;100785.13;1785979;79;21168;-77
2021/03/03 06:24:58;;;;;;;15.15;9.30;;;;;;;1.73;84.62;100815.54;1788384;79;21155;-79
2021/03/03 06:28:04;;;;;;;17.57;9.35;;;;;;;1.76;84.79;100777.58;1788188;79;21302;-78
2021/03/03 06:31:31;;;;;;;20.92;9.80;;;;;;;1.84;84.76;100797.27;1789423;79;21824;-78
2021/03/03 06:34:37;;;;;;;15.03;9.30;;;;;;;1.91;84.65;100796.34;1786135;79;21320;-77
2021/03/03 06:38:01;;;;;;;16.40;9.23;;;;;;;2.02;84.33;100809.46;1782034;79;21184;-79
2021/03/03 06:41:09;;;;;;;14.83;8.48;;;;;;;2.08;83.97;100804.10;1782806;79;21314;-78
2021/03/03 06:44:16;;;;;;;14.87;8.30;;;;;;;2.16;83.90;100817.89;1784767;79;21160;-78
2021/03/03 06:47:23;;;;;;;14.73;8.35;;;;;;;2.21;83.54;100807.66;1787423;79;22377;-79
2021/03/03 06:50:30;;;;;;;14.43;8.53;;;;;;;2.26;83.13;100812.23;1787312;79;21308;-79
2021/03/03 06:53:40;;;;;;;17.62;8.38;;;;;;;2.31;82.56;100811.89;1792211;79;21258;-80
2021/03/03 06:56:53;;;;;;;14.83;7.70;;;;;;;2.35;82.06;100805.27;1790438;79;21873;-79
2021/03/03 06:59:58;;;;;;;15.03;8.68;;;;;;;2.40;81.13;100811.69;1775018;79;21877;-79
2021/03/03 07:03:03;;;;;;;14.23;7.22;;;;;;;2.52;81.51;100832.41;1778010;79;21653;-79
2021/03/03 07:06:09;;;;;;;15.75;7.53;;;;;;;2.63;80.23;100808.66;1779088;79;21743;-79
2021/03/03 07:09:15;;;;;;;15.58;7.97;;;;;;;2.72;79.40;100819.64;1779238;79;21220;-78
2021/03/03 07:12:27;;;;;;;15.28;7.15;;;;;;;2.81;79.08;100822.16;1780846;79;21189;-80
2021/03/03 07:15:38;;;;;;;14.98;6.65;;;;;;;2.86;77.54;100829.91;1778272;78;21271;-78
2021/03/03 07:18:46;;;;;;;13.77;6.23;;;;;;;2.92;77.58;100846.55;1781914;79;21279;-77
2021/03/03 07:21:51;;;;;;;14.23;6.97;;;;;;;2.97;76.81;100815.13;1769912;79;21326;-78
2021/03/03 07:24:58;;;;;;;13.43;6.37;;;;;;;3.01;77.22;100837.77;1781837;79;21603;-78
2021/03/03 07:28:04;;;;;;;13.45;6.42;;;;;;;3.08;77.64;100840.84;1780634;79;21837;-77
2021/03/03 07:31:10;;;;;;;11.65;6.95;;;;;;;3.18;77.03;100813.98;1778082;79;21491;-79
2021/03/03 07:34:16;;;;;;;14.07;6.53;;;;;;;3.28;76.64;100825.81;1771447;79;21268;-79
2021/03/03 07:37:24;;;;;;;9.65;5.67;;;;;;;3.42;77.57;100823.41;1778446;79;21754;-78
2021/03/03 07:40:33;;;;;;;;;;;;;;;3.51;76.24;100833.03;1781377;79;21598;-78
2021/03/03 07:43:42;;;;;;;19.20;6.00;;;;;;;3.51;75.67;100843.84;1779312;79;20279;-78
2021/03/03 07:46:48;;;;;;;9.90;5.97;;;;;;;3.55;75.66;100826.90;1779168;79;21337;-78
2021/03/03 07:49:55;;;;;;;10.18;4.92;;;;;;;3.65;75.13;100831.11;1765434;79;21849;-78
2021/03/03 07:53:03;;;;;;;11.90;6.03;;;;;;;3.75;74.29;100845.63;1779012;79;21287;-78
2021/03/03 07:56:07;;;;;;;9.18;5.08;;;;;;;3.78;74.31;100853.03;1775918;79;21271;-80
2021/03/03 07:59:14;;;;;;;11.12;5.60;;;;;;;3.85;74.47;100826.34;1739762;81;21315;-77
2021/03/03 08:02:20;;;;;;;8.93;5.22;;;;;;;3.97;74.78;100840.27;1775839;79;21593;-79
2021/03/03 08:05:39;;;;;;;9.35;5.33;;;;;;;4.00;73.86;100837.33;1779755;79;21296;-78
2021/03/03 08:08:44;;;;;;;10.20;5.45;;;;;;;4.03;74.46;100853.31;1742263;80;21912;-77
2021/03/03 08:11:55;;;;;;;9.03;5.22;;;;;;;4.02;73.56;100842.61;1774172;79;21813;-80
2021/03/03 08:15:01;;;;;;;8.33;4.00;;;;;;;3.96;72.30;100839.05;1779151;79;21199;-81
2021/03/03 08:18:33;;;;;;;9.70;5.28;;;;;;;3.98;72.74;100838.42;1777711;79;21332;-82
2021/03/03 08:21:38;;;;;;;9.40;5.75;;;;;;;4.12;73.84;100840.04;1774108;79;21295;-82
2021/03/03 08:24:47;;;;;;;13.90;5.40;;;;;;;4.21;74.57;100839.30;1775320;79;21696;-81
2021/03/03 08:27:55;;;;;;;10.95;5.10;;;;;;;4.28;75.82;100840.52;1776879;79;21322;-80
2021/03/03 08:31:28;;;;;;;13.28;6.22;;;;;;;4.30;74.91;100846.20;1773275;79;21830;-81
2021/03/03 08:34:34;;;;;;;10.18;5.58;;;;;;;4.29;75.26;100841.77;1758208;79;21121;-81
2021/03/03 08:37:41;;;;;;;11.35;6.05;;;;;;;4.31;74.62;100834.38;1750089;79;21220;-82
2021/03/03 08:40:47;;;;;;;11.63;5.70;;;;;;;4.29;75.17;100856.67;1778478;79;21176;-81
2021/03/03 08:43:54;;;;;;;12.23;5.37;;;;;;;4.19;75.08;100852.98;1760122;79;21769;-80
2021/03/03 08:47:01;;;;;;;9.73;5.22;;;;;;;4.13;75.13;100857.50;1777637;79;21196;-80
2021/03/03 08:50:27;;;;;;;14.03;4.97;;;;;;;4.23;75.52;100867.11;1776897;79;21345;-79
2021/03/03 08:53:34;;;;;;;10.23;4.20;;;;;;;4.46;75.40;100863.42;1775879;79;21960;-81
2021/03/03 08:57:01;;;;;;;10.45;4.97;;;;;;;4.61;74.62;100869.45;1778173;79;21263;-81
2021/03/03 09:00:07;;;;;;;12.05;4.67;;;;;;;4.62;73.25;100863.06;1770400;79;21662;-83
2021/03/03 09:03:13;;;;;;;9.80;4.35;;;;;;;4.63;73.19;100853.94;1747299;80;21282;-81
2021/03/03 09:06:19;;;;;;;9.83;4.90;;;;;;;4.49;72.98;100875.88;1747022;81;21283;-81
2021/03/03 09:09:27;;;;;;;15.28;4.65;;;;;;;4.36;72.96;100877.34;1749811;80;21300;-81
2021/03/03 09:12:39;;;;;;;6.12;4.15;;;;;;;4.29;74.64;100864.80;1733403;80;22462;-81
2021/03/03 09:16:14;;;;;;;9.20;4.25;;;;;;;4.44;73.61;100872.18;1745840;80;21176;-81
2021/03/03 09:19:19;;;;;;;11.22;4.67;;;;;;;4.54;72.77;100875.01;1746854;80;21927;-80
2021/03/03 09:22:31;;;;;;;7.30;3.85;;;;;;;4.62;72.00;100877.97;1744349;80;21213;-79
2021/03/03 09:25:36;;;;;;;8.73;3.87;;;;;;;4.72;72.00;100873.52;1746936;80;21298;-80
2021/03/03 09:28:48;;;;;;;10.78;4.42;;;;;;;4.85;73.01;100895.93;1746942;80;21291;-78
2021/03/03 09:31:53;;;;;;;10.25;3.92;;;;;;;4.91;70.20;100897.27;1749460;80;21311;-80
2021/03/03 09:35:13;;;;;;;8.65;4.12;;;;;;;4.92;71.82;100887.28;1747511;80;21888;-80
2021/03/03 09:38:23;;;;;;;10.53;3.83;;;;;;;5.00;72.24;100893.80;1745633;80;21572;-80
2021/03/03 09:41:27;;;;;;;9.83;3.83;;;;;;;5.13;70.45;100899.95;1745245;80;21502;-80
2021/03/03 09:44:33;;;;;;;9.00;4.33;;;;;;;5.23;70.44;100901.89;1749746;80;21881;-79
2021/03/03 09:47:42;;;;;;;7.40;3.85;;;;;;;5.25;70.46;100884.48;1744636;80;21351;-79
2021/03/03 09:50:48;;;;;;;10.18;4.10;;;;;;;5.27;68.32;100899.27;1748869;80;21303;-80
2021/03/03 09:54:02;;;;;;;7.78;4.08;;;;;;;5.26;69.81;100906.55;1743596;80;21657;-80
2021/03/03 09:57:16;;;;;;;10.10;3.62;;;;;;;5.27;70.50;100900.16;1744864;80;21928;-80
2021/03/03 10:00:24;;;;;;;9.03;4.15;;;;;;;5.30;68.93;100905.30;1745379;80;21207;-78
2021/03/03 10:03:29;;;;;;;7.25;3.90;;;;;;;5.28;68.92;100904.58;1789278;78;21291;-79
2021/03/03 10:06:38;;;;;;;8.33;3.92;;;;;;;5.24;69.74;100900.40;1789537;78;21283;-82
2021/03/03 10:09:51;;;;;;;6.53;3.25;;;;;;;5.29;69.80;100890.53;1785924;78;21820;-80
2021/03/03 10:12:58;;;;;;;5.92;3.42;;;;;;;5.48;69.46;100882.56;1789452;79;21168;-79
2021/03/03 10:16:05;;;;;;;7.20;3.12;;;;;;;5.72;67.37;100890.47;1785798;78;21603;-81
2021/03/03 10:19:15;;;;;;;8.83;3.37;;;;;;;5.80;65.46;100883.89;1787961;79;21283;-81
2021/03/03 10:22:21;;;;;;;6.78;3.08;;;;;;;5.89;66.32;100876.31;1789785;78;21283;-80
2021/03/03 10:25:41;;;;;;;5.73;2.80;;;;;;;6.04;65.29;100870.58;1787194;78;21236;-81
2021/03/03 10:28:48;;;;;;;7.67;3.30;;;;;;;6.16;65.72;100873.56;1772052;78;22115;-82
2021/03/03 10:31:54;;;;;;;7.65;2.50;;;;;;;6.12;63.95;100897.94;1787433;78;21834;-81
2021/03/03 10:35:02;;;;;;;8.40;3.05;;;;;;;5.90;63.69;100892.96;1772103;79;21254;-79
2021/03/03 10:38:20;;;;;;;9.03;3.62;;;;;;;5.60;63.89;100898.31;1728241;80;21684;-81
2021/03/03 10:41:32;;;;;;;10.82;4.60;;;;;;;5.38;65.92;100906.03;1789334;78;22010;-86
2021/03/03 10:44:53;;;;;;;7.60;3.83;;;;;;;5.28;65.97;100890.16;1755630;78;21216;-82
2021/03/03 10:47:57;;;;;;;9.08;3.37;;;;;;;5.36;66.65;100895.32;1787426;78;21275;-82
2021/03/03 10:51:08;;;;;;;5.97;3.20;;;;;;;5.47;64.73;100883.55;1766991;78;21246;-80
2021/03/03 10:54:37;;;;;;;4.92;2.83;;;;;;;5.60;64.02;100898.31;1767268;79;21322;-81
2021/03/03 10:58:21;;;;;;;8.43;2.80;;;;;;;5.70;62.07;100897.89;1789510;79;21618;-82
2021/03/03 11:01:24;;;;;;;5.03;2.10;;;;;;;5.62;61.37;100905.31;1788448;79;21916;-81
2021/03/03 11:04:29;;;;;;;6.00;2.70;;;;;;;5.42;60.64;100918.86;1744730;80;21683;-81
2021/03/03 11:07:35;;;;;;;4.55;2.37;;;;;;;5.29;58.84;100917.65;1716082;82;21205;-79
2021/03/03 11:10:41;;;;;;;8.38;2.83;;;;;;;5.20;58.70;100925.19;1744636;80;21296;-79
2021/03/03 11:13:48;;;;;;;4.75;2.67;;;;;;;5.19;60.30;100916.70;1719040;82;21291;-79
2021/03/03 11:16:56;;;;;;;5.47;2.95;;;;;;;5.19;62.14;100913.48;1717376;82;21583;-78
2021/03/03 11:20:03;;;;;;;7.40;3.40;;;;;;;5.23;62.04;100932.59;1713252;82;21228;-79
2021/03/03 11:23:11;;;;;;;6.47;3.00;;;;;;;5.30;60.15;100913.44;1748397;81;21951;-79
2021/03/03 11:26:15;;;;;;;5.62;3.20;;;;;;;5.31;59.58;100916.52;1746609;80;21338;-79
2021/03/03 11:29:21;;;;;;;5.37;2.37;;;;;;;5.33;58.50;100910.48;1742829;80;21184;-86
2021/03/03 11:32:27;;;;;;;6.05;2.77;;;;;;;5.43;60.64;100913.29;1715516;82;21176;-78
2021/03/03 11:35:34;;;;;;;6.40;2.40;;;;;;;5.60;58.83;100930.88;1721587;82;21585;-79
2021/03/03 11:38:41;;;;;;;4.75;2.15;;;;;;;5.63;55.75;100925.17;1715902;82;21714;-79
2021/03/03 11:41:46;;;;;;;3.35;1.90;;;;;;;5.61;54.89;100921.74;1743225;80;21856;-78
2021/03/03 11:44:53;;;;;;;5.60;2.83;;;;;;;5.54;54.86;100921.87;1728899;81;21208;-77
2021/03/03 11:47:59;;;;;;;3.85;2.12;;;;;;;5.41;53.16;100947.84;1727683;81;21395;-78
2021/03/03 11:51:07;;;;;;;6.90;3.00;;;;;;;5.33;55.42;100929.47;1723022;81;21371;-83
2021/03/03 11:54:20;;;;;;;8.05;2.95;;;;;;;5.33;56.05;100932.19;1728048;81;21303;-77
2021/03/03 11:57:25;;;;;;;6.15;2.65;;;;;;;5.45;55.22;100944.35;1730168;81;21832;-81
2021/03/03 12:00:31;;;;;;;6.70;2.90;;;;;;;5.61;56.42;100936.67;1728014;81;21672;-81
2021/03/03 12:03:38;;;;;;;13.25;2.67;;;;;;;5.73;55.38;100932.90;1728282;81;21307;-80
2021/03/03 12:06:43;;;;;;;6.25;2.12;;;;;;;5.77;55.20;100932.15;1702210;82;21169;-79
2021/03/03 12:09:51;;;;;;;4.87;2.58;;;;;;;5.70;53.09;100940.47;1724530;82;21836;-78
2021/03/03 12:12:56;;;;;;;5.62;2.50;;;;;;;5.55;53.22;100936.70;1724417;82;21951;-81
2021/03/03 12:16:05;;;;;;;4.35;2.05;;;;;;;5.55;54.40;100952.98;1723622;82;21152;-81
2021/03/03 12:19:13;;;;;;;4.58;2.72;;;;;;;5.59;54.48;100944.05;1721930;82;21340;-80
2021/03/03 12:22:21;;;;;;;7.10;2.77;;;;;;;5.55;55.54;100964.30;1725912;82;21311;-80
2021/03/03 12:25:27;;;;;;;3.70;1.95;;;;;;;5.50;56.24;100962.47;1725794;82;21343;-79
2021/03/03 12:28:33;;;;;;;5.60;2.85;;;;;;;5.49;55.97;100957.53;1725354;82;21171;-81
2021/03/03 12:31:43;;;;;;;9.03;3.50;;;;;;;5.50;55.25;100958.39;1724226;81;21875;-79
2021/03/03 12:34:49;;;;;;;6.35;2.90;;;;;;;5.46;56.23;100967.77;1705686;82;21359;-79
2021/03/03 12:37:55;;;;;;;7.03;2.60;;;;;;;5.47;57.13;100969.52;1723783;82;21595;-79
2021/03/03 12:40:59;;;;;;;6.10;2.75;;;;;;;5.51;55.91;100962.86;1730146;80;21511;-79
2021/03/03 12:44:04;;;;;;;6.78;3.70;;;;;;;5.44;56.21;100967.91;1723766;82;22224;-79
2021/03/03 12:47:14;;;;;;;10.65;5.90;;;;;;;5.42;54.30;100962.27;1727929;82;21468;-81
2021/03/03 12:50:25;;;;;;;8.23;4.50;;;;;;;5.36;54.77;100974.45;1727309;80;21329;-78
2021/03/03 12:53:32;;;;;;;7.78;4.08;;;;;;;5.26;54.61;100971.64;1728646;82;21204;-80
2021/03/03 12:56:42;;;;;;;6.80;3.20;;;;;;;5.23;54.87;100962.42;1709454;81;21839;-80
2021/03/03 12:59:48;;;;;;;12.45;5.58;;;;;;;5.26;54.73;100974.36;1724595;82;21241;-80
2021/03/03 13:02:53;;;;;;;15.40;5.75;;;;;;;5.26;55.04;100967.58;1703826;82;21312;-80
2021/03/03 13:05:59;;;;;;;8.13;4.90;;;;;;;5.26;55.40;100963.51;1700397;82;21187;-81
2021/03/03 13:09:05;;;;;;;10.50;5.08;;;;;;;5.28;55.92;100972.40;1705660;82;21189;-80
2021/03/03 13:12:10;;;;;;;7.40;4.53;;;;;;;5.31;55.18;100968.05;1682269;84;21548;-79
2021/03/03 13:15:17;;;;;;;10.48;4.83;;;;;;;5.36;56.95;100968.56;1688188;82;21232;-79
2021/03/03 13:18:25;;;;;;;10.25;5.60;;;;;;;5.50;56.47;100966.53;1683954;84;21624;-79
2021/03/03 13:21:30;;;;;;;9.78;5.35;;;;;;;5.61;55.19;100981.45;1687571;82;21260;-79
2021/03/03 13:24:36;;;;;;;15.05;4.67;;;;;;;5.66;55.21;100984.64;1685234;84;21197;-79
2021/03/03 13:27:52;;;;;;;6.55;3.72;;;;;;;5.65;54.12;100978.84;1677667;84;21229;-79
2021/03/03 13:30:58;;;;;;;5.47;2.85;;;;;;;5.59;54.25;100981.55;1695075;83;21319;-78
2021/03/03 13:34:04;;;;;;;6.80;3.17;;;;;;;5.59;55.85;100968.48;1695185;83;21299;-77
2021/03/03 13:37:11;;;;;;;10.50;4.35;;;;;;;5.62;55.54;100971.81;1690086;83;21315;-77
2021/03/03 13:40:21;;;;;;;7.83;4.70;;;;;;;5.61;52.35;100981.45;1699640;83;21963;-77
2021/03/03 13:43:26;;;;;;;8.08;4.08;;;;;;;5.54;53.58;100977.01;1698750;83;21875;-77
2021/03/03 13:46:32;;;;;;;9.40;3.27;;;;;;;5.53;55.22;100975.79;1700818;83;21284;-76
2021/03/03 13:49:38;;;;;;;8.63;3.62;;;;;;;5.48;53.74;100973.95;1696055;83;21158;-77
2021/03/03 13:52:44;;;;;;;6.12;2.75;;;;;;;5.42;53.42;100969.91;1695008;83;21323;-77
2021/03/03 13:55:50;;;;;;;5.05;2.35;;;;;;;5.38;55.29;100978.78;1694269;83;21307;-77
2021/03/03 13:58:56;;;;;;;9.55;3.22;;;;;;;5.41;55.55;100975.44;1698676;83;21203;-76
2021/03/03 14:02:03;;;;;;;11.35;4.25;;;;;;;5.41;54.52;100971.37;1693349;83;21381;-77
2021/03/03 14:05:09;;;;;;;9.98;4.75;;;;;;;5.35;53.97;100980.88;1701159;82;21363;-76
2021/03/03 14:08:16;;;;;;;9.65;4.17;;;;;;;5.27;55.42;100974.75;1754639;80;21283;-79
2021/03/03 14:11:20;;;;;;;10.15;4.78;;;;;;;5.20;55.62;100968.09;1753866;80;21847;-77
2021/03/03 14:14:26;;;;;;;8.63;3.90;;;;;;;5.19;55.73;100981.29;1703084;82;21293;-77
2021/03/03 14:17:32;;;;;;;6.70;3.47;;;;;;;5.17;56.31;100972.40;1705427;83;21886;-77
2021/03/03 14:20:37;;;;;;;6.55;3.40;;;;;;;5.13;55.75;100979.09;1706412;83;21286;-77
2021/03/03 14:23:43;;;;;;;5.60;3.05;;;;;;;5.09;56.92;100977.61;1705676;83;21271;-77
2021/03/03 14:26:51;;;;;;;3.58;1.90;;;;;;;5.04;57.04;100981.19;1707292;83;22001;-77
2021/03/03 14:29:58;;;;;;;3.77;1.95;;;;;;;4.97;57.65;100975.38;1717566;82;21315;-78
2021/03/03 14:33:05;;;;;;;5.55;2.47;;;;;;;4.91;57.77;100989.94;1734893;82;21370;-80
2021/03/03 14:36:10;;;;;;;7.30;3.58;;;;;;;4.84;58.62;100983.63;1728092;82;21614;-78